sensor_id;sensor_type;location;lat;lon;timestamp;temperature;humidity
22288;DHT22;11312;51.464;6.968;2024-01-11T00:02:18;-2.80;99.90
22288;DHT22;11312;51.464;6.968;2024-01-11T00:04:44;-2.80;99.90
22288;DHT22;11312;51.464;6.968;2024-01-11T00:07:09;-2.80;99.90
22288;DHT22;11312;51.464;6.968;2024-01-11T00:09:44;-2.70;99.90
22288;DHT22;11312;51.464;6.968;2024-01-11T00:12:10;-2.70;99.90
22288;DHT22;11312;51.464;6.968;2024-01-11T00:14:35;-2.80;99.90
22288;DHT22;11312;51.464;6.968;2024-01-11T00:17:01;-2.90;99.90
22288;DHT22;11312;51.464;6.968;2024-01-11T00:19:27;-3.00;99.90
22288;DHT22;11312;51.464;6.968;2024-01-11T00:21:53;-3.00;99.90
22288;DHT22;11312;51.464;6.968;2024-01-11T00:24:19;-3.00;99.90
22288;DHT22;11312;51.464;6.968;2024-01-11T00:26:45;-2.90;99.90
22288;DHT22;11312;51.464;6.968;2024-01-11T00:29:11;-2.90;99.90
22288;DHT22;11312;51.464;6.968;2024-01-11T00:31:36;-2.90;99.90
22288;DHT22;11312;51.464;6.968;2024-01-11T00:34:04;-2.90;99.90
22288;DHT22;11312;51.464;6.968;2024-01-11T00:36:29;-2.90;99.90
22288;DHT22;11312;51.464;6.968;2024-01-11T00:38:55;-2.90;99.90
22288;DHT22;11312;51.464;6.968;2024-01-11T00:41:21;-3.00;99.90
22288;DHT22;11312;51.464;6.968;2024-01-11T00:43:47;-3.00;99.90
22288;DHT22;11312;51.464;6.968;2024-01-11T00:46:12;-3.00;99.90
22288;DHT22;11312;51.464;6.968;2024-01-11T00:48:38;-3.10;99.90
22288;DHT22;11312;51.464;6.968;2024-01-11T00:51:05;-3.00;99.90
22288;DHT22;11312;51.464;6.968;2024-01-11T00:53:30;-3.10;99.90
22288;DHT22;11312;51.464;6.968;2024-01-11T00:55:57;-3.10;99.90
22288;DHT22;11312;51.464;6.968;2024-01-11T00:58:23;-3.20;99.90
22288;DHT22;11312;51.464;6.968;2024-01-11T01:00:49;-3.20;99.90
22288;DHT22;11312;51.464;6.968;2024-01-11T01:03:15;-3.30;99.90
22288;DHT22;11312;51.464;6.968;2024-01-11T01:05:41;-3.30;99.90
22288;DHT22;11312;51.464;6.968;2024-01-11T01:08:07;-3.20;99.90
22288;DHT22;11312;51.464;6.968;2024-01-11T01:10:33;-3.30;99.90
22288;DHT22;11312;51.464;6.968;2024-01-11T01:12:58;-3.20;99.90
22288;DHT22;11312;51.464;6.968;2024-01-11T01:15:24;-3.10;99.90
22288;DHT22;11312;51.464;6.968;2024-01-11T01:17:49;-3.30;99.90
22288;DHT22;11312;51.464;6.968;2024-01-11T01:20:15;-3.30;99.90
22288;DHT22;11312;51.464;6.968;2024-01-11T01:22:41;-3.40;99.90
22288;DHT22;11312;51.464;6.968;2024-01-11T01:25:06;-3.40;99.90
22288;DHT22;11312;51.464;6.968;2024-01-11T01:27:32;-3.50;99.90
22288;DHT22;11312;51.464;6.968;2024-01-11T01:29:58;-3.50;99.90
22288;DHT22;11312;51.464;6.968;2024-01-11T01:32:23;-3.40;99.90
22288;DHT22;11312;51.464;6.968;2024-01-11T01:34:49;-3.40;99.90
22288;DHT22;11312;51.464;6.968;2024-01-11T01:37:14;-3.40;99.90
22288;DHT22;11312;51.464;6.968;2024-01-11T01:39:40;-3.50;99.90
22288;DHT22;11312;51.464;6.968;2024-01-11T01:42:06;-3.50;99.90
22288;DHT22;11312;51.464;6.968;2024-01-11T01:44:33;-3.50;99.90
22288;DHT22;11312;51.464;6.968;2024-01-11T01:47:00;-3.40;99.90
22288;DHT22;11312;51.464;6.968;2024-01-11T01:49:26;-3.50;99.90
22288;DHT22;11312;51.464;6.968;2024-01-11T01:51:53;-3.50;99.90
22288;DHT22;11312;51.464;6.968;2024-01-11T01:54:19;-3.50;99.90
22288;DHT22;11312;51.464;6.968;2024-01-11T01:56:46;-3.50;99.90
22288;DHT22;11312;51.464;6.968;2024-01-11T01:59:12;-3.60;99.90
22288;DHT22;11312;51.464;6.968;2024-01-11T02:01:39;-3.60;99.90
22288;DHT22;11312;51.464;6.968;2024-01-11T02:04:05;-3.70;99.90
22288;DHT22;11312;51.464;6.968;2024-01-11T02:06:33;-3.80;99.90
22288;DHT22;11312;51.464;6.968;2024-01-11T02:09:02;-3.80;99.90
22288;DHT22;11312;51.464;6.968;2024-01-11T02:11:29;-3.80;99.90
22288;DHT22;11312;51.464;6.968;2024-01-11T02:13:55;-3.70;99.90
22288;DHT22;11312;51.464;6.968;2024-01-11T02:16:22;-3.80;99.90
22288;DHT22;11312;51.464;6.968;2024-01-11T02:18:49;-3.70;99.90
22288;DHT22;11312;51.464;6.968;2024-01-11T02:21:16;-3.70;99.90
22288;DHT22;11312;51.464;6.968;2024-01-11T02:23:58;-3.80;99.90
22288;DHT22;11312;51.464;6.968;2024-01-11T02:26:23;-3.70;99.90
22288;DHT22;11312;51.464;6.968;2024-01-11T02:28:49;-3.70;99.90
22288;DHT22;11312;51.464;6.968;2024-01-11T02:31:15;-3.70;99.90
22288;DHT22;11312;51.464;6.968;2024-01-11T02:33:41;-3.80;99.90
22288;DHT22;11312;51.464;6.968;2024-01-11T02:36:07;-3.80;99.90
22288;DHT22;11312;51.464;6.968;2024-01-11T02:38:33;-3.80;99.90
22288;DHT22;11312;51.464;6.968;2024-01-11T02:40:59;-3.90;99.90
22288;DHT22;11312;51.464;6.968;2024-01-11T02:43:25;-3.80;99.90
22288;DHT22;11312;51.464;6.968;2024-01-11T02:45:54;-3.80;99.90
22288;DHT22;11312;51.464;6.968;2024-01-11T02:48:21;-3.80;99.90
22288;DHT22;11312;51.464;6.968;2024-01-11T02:50:48;-3.80;99.90
22288;DHT22;11312;51.464;6.968;2024-01-11T02:53:14;-3.80;99.90
22288;DHT22;11312;51.464;6.968;2024-01-11T02:55:40;-3.90;99.90
22288;DHT22;11312;51.464;6.968;2024-01-11T02:58:05;-3.90;99.90
22288;DHT22;11312;51.464;6.968;2024-01-11T03:00:31;-3.90;99.90
22288;DHT22;11312;51.464;6.968;2024-01-11T03:02:56;-3.90;99.90
22288;DHT22;11312;51.464;6.968;2024-01-11T03:05:22;-3.90;99.90
22288;DHT22;11312;51.464;6.968;2024-01-11T03:07:47;-3.90;99.90
22288;DHT22;11312;51.464;6.968;2024-01-11T03:10:13;-3.90;99.90
22288;DHT22;11312;51.464;6.968;2024-01-11T03:12:40;-3.80;99.90
22288;DHT22;11312;51.464;6.968;2024-01-11T03:15:06;-3.80;99.90
22288;DHT22;11312;51.464;6.968;2024-01-11T03:17:33;-3.80;99.90
22288;DHT22;11312;51.464;6.968;2024-01-11T03:19:58;-3.90;99.90
22288;DHT22;11312;51.464;6.968;2024-01-11T03:22:25;-3.80;99.90
22288;DHT22;11312;51.464;6.968;2024-01-11T03:24:51;-3.80;99.90
22288;DHT22;11312;51.464;6.968;2024-01-11T03:27:17;-3.80;99.90
22288;DHT22;11312;51.464;6.968;2024-01-11T03:29:43;-3.90;99.90
22288;DHT22;11312;51.464;6.968;2024-01-11T03:32:09;-3.80;99.90
22288;DHT22;11312;51.464;6.968;2024-01-11T03:34:38;-3.70;99.90
22288;DHT22;11312;51.464;6.968;2024-01-11T03:37:03;-3.80;99.90
22288;DHT22;11312;51.464;6.968;2024-01-11T03:39:29;-3.90;99.90
22288;DHT22;11312;51.464;6.968;2024-01-11T03:41:54;-4.00;99.90
22288;DHT22;11312;51.464;6.968;2024-01-11T03:44:20;-4.00;99.90
22288;DHT22;11312;51.464;6.968;2024-01-11T03:46:46;-3.90;99.90
22288;DHT22;11312;51.464;6.968;2024-01-11T03:49:12;-3.90;99.90
22288;DHT22;11312;51.464;6.968;2024-01-11T03:51:37;-3.80;99.90
22288;DHT22;11312;51.464;6.968;2024-01-11T03:54:03;-3.80;99.90
22288;DHT22;11312;51.464;6.968;2024-01-11T03:56:29;-4.00;99.90
22288;DHT22;11312;51.464;6.968;2024-01-11T03:58:54;-4.00;99.90
22288;DHT22;11312;51.464;6.968;2024-01-11T04:01:20;-3.90;99.90
22288;DHT22;11312;51.464;6.968;2024-01-11T04:03:46;-3.90;99.90
22288;DHT22;11312;51.464;6.968;2024-01-11T04:06:24;-3.80;99.90
22288;DHT22;11312;51.464;6.968;2024-01-11T04:08:50;-4.00;99.90
22288;DHT22;11312;51.464;6.968;2024-01-11T04:11:16;-4.00;99.90
22288;DHT22;11312;51.464;6.968;2024-01-11T04:13:42;-4.00;99.90
22288;DHT22;11312;51.464;6.968;2024-01-11T04:16:09;-4.00;99.90
22288;DHT22;11312;51.464;6.968;2024-01-11T04:18:34;-4.00;99.90
22288;DHT22;11312;51.464;6.968;2024-01-11T04:21:00;-3.90;99.90
22288;DHT22;11312;51.464;6.968;2024-01-11T04:23:29;-3.80;99.90
22288;DHT22;11312;51.464;6.968;2024-01-11T04:25:55;-3.90;99.90
22288;DHT22;11312;51.464;6.968;2024-01-11T04:28:20;-4.10;99.90
22288;DHT22;11312;51.464;6.968;2024-01-11T04:30:46;-4.20;99.90
22288;DHT22;11312;51.464;6.968;2024-01-11T04:33:11;-4.40;99.90
22288;DHT22;11312;51.464;6.968;2024-01-11T04:35:37;-4.20;99.90
22288;DHT22;11312;51.464;6.968;2024-01-11T04:38:03;-4.40;99.90
22288;DHT22;11312;51.464;6.968;2024-01-11T04:40:28;-4.30;99.90
22288;DHT22;11312;51.464;6.968;2024-01-11T04:42:54;-4.30;99.90
22288;DHT22;11312;51.464;6.968;2024-01-11T04:45:19;-4.20;99.90
22288;DHT22;11312;51.464;6.968;2024-01-11T04:47:45;-4.20;99.90
22288;DHT22;11312;51.464;6.968;2024-01-11T04:50:11;-4.20;99.90
22288;DHT22;11312;51.464;6.968;2024-01-11T04:52:36;-4.20;99.90
22288;DHT22;11312;51.464;6.968;2024-01-11T04:55:02;-4.20;99.90
22288;DHT22;11312;51.464;6.968;2024-01-11T04:57:28;-4.20;99.90
22288;DHT22;11312;51.464;6.968;2024-01-11T04:59:53;-4.20;99.90
22288;DHT22;11312;51.464;6.968;2024-01-11T05:02:22;-4.20;99.90
22288;DHT22;11312;51.464;6.968;2024-01-11T05:04:48;-4.30;99.90
22288;DHT22;11312;51.464;6.968;2024-01-11T05:07:14;-4.30;99.90
22288;DHT22;11312;51.464;6.968;2024-01-11T05:09:39;-4.20;99.90
22288;DHT22;11312;51.464;6.968;2024-01-11T05:12:05;-4.30;99.90
22288;DHT22;11312;51.464;6.968;2024-01-11T05:14:31;-4.40;99.90
22288;DHT22;11312;51.464;6.968;2024-01-11T05:16:57;-4.30;99.90
22288;DHT22;11312;51.464;6.968;2024-01-11T05:19:23;-4.30;99.90
22288;DHT22;11312;51.464;6.968;2024-01-11T05:21:49;-4.20;99.90
22288;DHT22;11312;51.464;6.968;2024-01-11T05:24:15;-4.20;99.90
22288;DHT22;11312;51.464;6.968;2024-01-11T05:26:40;-4.30;99.90
22288;DHT22;11312;51.464;6.968;2024-01-11T05:29:06;-4.20;99.90
22288;DHT22;11312;51.464;6.968;2024-01-11T05:31:31;-4.20;99.90
22288;DHT22;11312;51.464;6.968;2024-01-11T05:33:57;-4.20;99.90
22288;DHT22;11312;51.464;6.968;2024-01-11T05:36:23;-4.20;99.90
22288;DHT22;11312;51.464;6.968;2024-01-11T05:38:50;-4.30;99.90
22288;DHT22;11312;51.464;6.968;2024-01-11T05:41:16;-4.30;99.90
22288;DHT22;11312;51.464;6.968;2024-01-11T05:43:43;-4.30;99.90
22288;DHT22;11312;51.464;6.968;2024-01-11T05:46:09;-4.30;99.90
22288;DHT22;11312;51.464;6.968;2024-01-11T05:48:35;-4.20;99.90
22288;DHT22;11312;51.464;6.968;2024-01-11T05:51:00;-4.20;99.90
22288;DHT22;11312;51.464;6.968;2024-01-11T05:53:26;-4.10;99.90
22288;DHT22;11312;51.464;6.968;2024-01-11T05:55:53;-4.10;99.90
22288;DHT22;11312;51.464;6.968;2024-01-11T05:58:20;-4.20;99.90
22288;DHT22;11312;51.464;6.968;2024-01-11T06:00:46;-4.20;99.90
22288;DHT22;11312;51.464;6.968;2024-01-11T06:03:12;-4.20;99.90
22288;DHT22;11312;51.464;6.968;2024-01-11T06:05:39;-4.20;99.90
22288;DHT22;11312;51.464;6.968;2024-01-11T06:08:05;-4.20;99.90
22288;DHT22;11312;51.464;6.968;2024-01-11T06:10:31;-4.30;99.90
22288;DHT22;11312;51.464;6.968;2024-01-11T06:12:57;-4.30;99.90
22288;DHT22;11312;51.464;6.968;2024-01-11T06:15:23;-4.60;99.90
22288;DHT22;11312;51.464;6.968;2024-01-11T06:17:48;-4.60;99.90
22288;DHT22;11312;51.464;6.968;2024-01-11T06:20:14;-4.60;99.90
22288;DHT22;11312;51.464;6.968;2024-01-11T06:22:40;-4.50;99.90
22288;DHT22;11312;51.464;6.968;2024-01-11T06:25:05;-5.00;99.90
22288;DHT22;11312;51.464;6.968;2024-01-11T06:27:31;-5.20;99.90
22288;DHT22;11312;51.464;6.968;2024-01-11T06:29:57;-5.00;99.90
22288;DHT22;11312;51.464;6.968;2024-01-11T06:32:23;-4.80;99.90
22288;DHT22;11312;51.464;6.968;2024-01-11T06:34:49;-4.60;99.90
22288;DHT22;11312;51.464;6.968;2024-01-11T06:37:15;-4.60;99.90
22288;DHT22;11312;51.464;6.968;2024-01-11T06:39:40;-4.80;99.90
22288;DHT22;11312;51.464;6.968;2024-01-11T06:42:06;-4.70;99.90
22288;DHT22;11312;51.464;6.968;2024-01-11T06:44:31;-4.50;99.90
22288;DHT22;11312;51.464;6.968;2024-01-11T06:46:57;-3.90;99.90
22288;DHT22;11312;51.464;6.968;2024-01-11T06:49:23;-4.40;99.90
22288;DHT22;11312;51.464;6.968;2024-01-11T06:51:48;-4.40;99.90
22288;DHT22;11312;51.464;6.968;2024-01-11T06:54:14;-4.30;99.90
22288;DHT22;11312;51.464;6.968;2024-01-11T06:56:40;-4.40;99.90
22288;DHT22;11312;51.464;6.968;2024-01-11T06:59:07;-4.50;99.90
22288;DHT22;11312;51.464;6.968;2024-01-11T07:01:32;-4.30;99.90
22288;DHT22;11312;51.464;6.968;2024-01-11T07:03:58;-4.40;99.90
22288;DHT22;11312;51.464;6.968;2024-01-11T07:06:25;-4.40;99.90
22288;DHT22;11312;51.464;6.968;2024-01-11T07:08:51;-4.40;99.90
22288;DHT22;11312;51.464;6.968;2024-01-11T07:11:16;-4.50;99.90
22288;DHT22;11312;51.464;6.968;2024-01-11T07:13:42;-4.50;99.90
22288;DHT22;11312;51.464;6.968;2024-01-11T07:16:09;-4.40;99.90
22288;DHT22;11312;51.464;6.968;2024-01-11T07:18:34;-4.20;99.90
22288;DHT22;11312;51.464;6.968;2024-01-11T07:21:00;-4.40;99.90
22288;DHT22;11312;51.464;6.968;2024-01-11T07:23:26;-4.40;99.90
22288;DHT22;11312;51.464;6.968;2024-01-11T07:25:52;-4.50;99.90
22288;DHT22;11312;51.464;6.968;2024-01-11T07:28:18;-4.50;99.90
22288;DHT22;11312;51.464;6.968;2024-01-11T07:30:45;-4.40;99.90
22288;DHT22;11312;51.464;6.968;2024-01-11T07:33:11;-4.50;99.90
22288;DHT22;11312;51.464;6.968;2024-01-11T07:35:37;-4.50;99.90
22288;DHT22;11312;51.464;6.968;2024-01-11T07:38:03;-4.50;99.90
22288;DHT22;11312;51.464;6.968;2024-01-11T07:40:29;-3.80;99.90
22288;DHT22;11312;51.464;6.968;2024-01-11T07:42:55;-4.40;99.90
22288;DHT22;11312;51.464;6.968;2024-01-11T07:45:20;-4.40;99.90
22288;DHT22;11312;51.464;6.968;2024-01-11T07:47:46;-4.40;99.90
22288;DHT22;11312;51.464;6.968;2024-01-11T07:50:12;-4.40;99.90
22288;DHT22;11312;51.464;6.968;2024-01-11T07:52:38;-4.40;99.90
22288;DHT22;11312;51.464;6.968;2024-01-11T07:55:07;-4.40;99.90
22288;DHT22;11312;51.464;6.968;2024-01-11T07:57:37;-4.30;99.90
22288;DHT22;11312;51.464;6.968;2024-01-11T08:00:03;-4.30;99.90
22288;DHT22;11312;51.464;6.968;2024-01-11T08:02:32;-4.30;99.90
22288;DHT22;11312;51.464;6.968;2024-01-11T08:04:57;-4.30;99.90
22288;DHT22;11312;51.464;6.968;2024-01-11T08:07:27;-4.20;99.90
22288;DHT22;11312;51.464;6.968;2024-01-11T08:09:52;-4.20;99.90
22288;DHT22;11312;51.464;6.968;2024-01-11T08:12:18;-4.10;99.90
22288;DHT22;11312;51.464;6.968;2024-01-11T08:14:43;-4.20;99.90
22288;DHT22;11312;51.464;6.968;2024-01-11T08:17:11;-4.20;99.90
22288;DHT22;11312;51.464;6.968;2024-01-11T08:19:37;-4.20;99.90
22288;DHT22;11312;51.464;6.968;2024-01-11T08:22:03;-4.20;99.90
22288;DHT22;11312;51.464;6.968;2024-01-11T08:24:29;-4.10;99.90
22288;DHT22;11312;51.464;6.968;2024-01-11T08:26:54;-4.00;99.90
22288;DHT22;11312;51.464;6.968;2024-01-11T08:29:20;-4.00;99.90
22288;DHT22;11312;51.464;6.968;2024-01-11T08:31:46;-4.10;99.90
22288;DHT22;11312;51.464;6.968;2024-01-11T08:34:11;-4.00;99.90
22288;DHT22;11312;51.464;6.968;2024-01-11T08:36:37;-4.00;99.90
22288;DHT22;11312;51.464;6.968;2024-01-11T08:39:04;-4.00;99.90
22288;DHT22;11312;51.464;6.968;2024-01-11T08:41:34;-3.90;99.90
22288;DHT22;11312;51.464;6.968;2024-01-11T08:44:01;-4.00;99.90
22288;DHT22;11312;51.464;6.968;2024-01-11T08:46:28;-3.90;99.90
22288;DHT22;11312;51.464;6.968;2024-01-11T08:48:54;-4.00;99.90
22288;DHT22;11312;51.464;6.968;2024-01-11T08:51:21;-3.90;99.90
22288;DHT22;11312;51.464;6.968;2024-01-11T08:53:47;-3.90;99.90
22288;DHT22;11312;51.464;6.968;2024-01-11T08:56:14;-3.90;99.90
22288;DHT22;11312;51.464;6.968;2024-01-11T08:58:43;-3.80;99.90
22288;DHT22;11312;51.464;6.968;2024-01-11T09:01:08;-3.20;99.90
22288;DHT22;11312;51.464;6.968;2024-01-11T09:03:34;-3.90;99.90
22288;DHT22;11312;51.464;6.968;2024-01-11T09:06:04;-4.00;99.90
22288;DHT22;11312;51.464;6.968;2024-01-11T09:08:30;-3.50;99.90
22288;DHT22;11312;51.464;6.968;2024-01-11T09:10:56;-3.90;99.90
22288;DHT22;11312;51.464;6.968;2024-01-11T09:13:24;-3.90;99.90
22288;DHT22;11312;51.464;6.968;2024-01-11T09:16:01;-3.80;99.90
22288;DHT22;11312;51.464;6.968;2024-01-11T09:18:26;-3.70;99.90
22288;DHT22;11312;51.464;6.968;2024-01-11T09:20:53;-3.70;99.90
22288;DHT22;11312;51.464;6.968;2024-01-11T09:23:18;-3.60;99.90
22288;DHT22;11312;51.464;6.968;2024-01-11T09:25:44;-3.50;99.90
22288;DHT22;11312;51.464;6.968;2024-01-11T09:28:11;-3.50;99.90
22288;DHT22;11312;51.464;6.968;2024-01-11T09:30:36;-3.50;99.90
22288;DHT22;11312;51.464;6.968;2024-01-11T09:33:02;-3.50;99.90
22288;DHT22;11312;51.464;6.968;2024-01-11T09:35:28;-3.40;99.90
22288;DHT22;11312;51.464;6.968;2024-01-11T09:37:53;-3.40;99.90
22288;DHT22;11312;51.464;6.968;2024-01-11T09:40:19;-3.30;99.90
22288;DHT22;11312;51.464;6.968;2024-01-11T09:42:47;-3.30;99.90
22288;DHT22;11312;51.464;6.968;2024-01-11T09:45:15;-3.20;99.90
22288;DHT22;11312;51.464;6.968;2024-01-11T09:47:41;-3.30;99.90
22288;DHT22;11312;51.464;6.968;2024-01-11T09:50:08;-3.20;99.90
22288;DHT22;11312;51.464;6.968;2024-01-11T09:52:34;-3.20;99.90
22288;DHT22;11312;51.464;6.968;2024-01-11T09:55:00;-3.10;99.90
22288;DHT22;11312;51.464;6.968;2024-01-11T09:57:31;-3.20;99.90
22288;DHT22;11312;51.464;6.968;2024-01-11T09:59:59;-3.00;99.90
22288;DHT22;11312;51.464;6.968;2024-01-11T10:02:26;-3.10;99.90
22288;DHT22;11312;51.464;6.968;2024-01-11T10:04:52;-3.00;99.90
22288;DHT22;11312;51.464;6.968;2024-01-11T10:07:22;-2.90;99.90
22288;DHT22;11312;51.464;6.968;2024-01-11T10:09:52;-2.80;99.90
22288;DHT22;11312;51.464;6.968;2024-01-11T10:12:18;-2.80;99.90
22288;DHT22;11312;51.464;6.968;2024-01-11T10:14:46;-2.80;99.90
22288;DHT22;11312;51.464;6.968;2024-01-11T10:17:12;-2.70;99.90
22288;DHT22;11312;51.464;6.968;2024-01-11T10:19:38;-2.70;99.90
22288;DHT22;11312;51.464;6.968;2024-01-11T10:22:04;-2.70;99.90
22288;DHT22;11312;51.464;6.968;2024-01-11T10:24:30;-2.60;99.90
22288;DHT22;11312;51.464;6.968;2024-01-11T10:26:56;-2.60;99.90
22288;DHT22;11312;51.464;6.968;2024-01-11T10:29:22;-2.50;99.90
22288;DHT22;11312;51.464;6.968;2024-01-11T10:31:49;-2.60;99.90
22288;DHT22;11312;51.464;6.968;2024-01-11T10:34:17;-2.50;99.90
22288;DHT22;11312;51.464;6.968;2024-01-11T10:36:42;-2.40;99.90
22288;DHT22;11312;51.464;6.968;2024-01-11T10:39:09;-2.30;99.90
22288;DHT22;11312;51.464;6.968;2024-01-11T10:41:40;-2.30;99.90
22288;DHT22;11312;51.464;6.968;2024-01-11T10:44:18;-1.60;99.90
22288;DHT22;11312;51.464;6.968;2024-01-11T10:46:45;-2.20;99.90
22288;DHT22;11312;51.464;6.968;2024-01-11T10:49:11;-2.20;99.90
22288;DHT22;11312;51.464;6.968;2024-01-11T10:51:44;-2.10;99.90
22288;DHT22;11312;51.464;6.968;2024-01-11T10:54:11;-2.00;99.90
22288;DHT22;11312;51.464;6.968;2024-01-11T10:56:37;-2.00;99.90
22288;DHT22;11312;51.464;6.968;2024-01-11T10:59:07;-2.00;98.70
22288;DHT22;11312;51.464;6.968;2024-01-11T11:01:33;-2.00;97.10
22288;DHT22;11312;51.464;6.968;2024-01-11T11:03:59;-1.90;97.90
22288;DHT22;11312;51.464;6.968;2024-01-11T11:06:27;-1.80;98.10
22288;DHT22;11312;51.464;6.968;2024-01-11T11:08:55;-1.80;96.90
22288;DHT22;11312;51.464;6.968;2024-01-11T11:11:22;-1.80;97.30
22288;DHT22;11312;51.464;6.968;2024-01-11T11:13:49;-1.80;97.50
22288;DHT22;11312;51.464;6.968;2024-01-11T11:16:16;-1.70;96.10
22288;DHT22;11312;51.464;6.968;2024-01-11T11:18:43;-1.70;97.70
22288;DHT22;11312;51.464;6.968;2024-01-11T11:21:10;-1.60;94.40
22288;DHT22;11312;51.464;6.968;2024-01-11T11:23:38;-1.70;92.80
22288;DHT22;11312;51.464;6.968;2024-01-11T11:26:06;-1.60;94.40
22288;DHT22;11312;51.464;6.968;2024-01-11T11:28:35;-1.60;92.50
22288;DHT22;11312;51.464;6.968;2024-01-11T11:31:02;-1.60;93.50
22288;DHT22;11312;51.464;6.968;2024-01-11T11:33:29;-1.50;92.00
22288;DHT22;11312;51.464;6.968;2024-01-11T11:35:59;-1.50;92.60
22288;DHT22;11312;51.464;6.968;2024-01-11T11:38:28;-1.40;92.60
22288;DHT22;11312;51.464;6.968;2024-01-11T11:40:56;-1.30;93.10
22288;DHT22;11312;51.464;6.968;2024-01-11T11:43:23;-1.30;92.80
22288;DHT22;11312;51.464;6.968;2024-01-11T11:45:50;-1.30;91.60
22288;DHT22;11312;51.464;6.968;2024-01-11T11:51:14;-1.20;90.30
22288;DHT22;11312;51.464;6.968;2024-01-11T11:53:41;-1.20;87.60
22288;DHT22;11312;51.464;6.968;2024-01-11T11:56:08;-1.10;87.10
22288;DHT22;11312;51.464;6.968;2024-01-11T11:58:38;-1.00;88.90
22288;DHT22;11312;51.464;6.968;2024-01-11T12:01:08;-1.00;87.80
22288;DHT22;11312;51.464;6.968;2024-01-11T12:03:41;-1.00;87.30
22288;DHT22;11312;51.464;6.968;2024-01-11T12:06:08;-0.90;84.50
22288;DHT22;11312;51.464;6.968;2024-01-11T12:08:36;-0.90;84.40
22288;DHT22;11312;51.464;6.968;2024-01-11T12:11:02;-0.90;86.10
22288;DHT22;11312;51.464;6.968;2024-01-11T12:13:29;-0.80;86.40
22288;DHT22;11312;51.464;6.968;2024-01-11T12:15:56;-0.80;82.90
22288;DHT22;11312;51.464;6.968;2024-01-11T12:18:22;-0.70;78.20
22288;DHT22;11312;51.464;6.968;2024-01-11T12:20:48;-0.70;76.00
22288;DHT22;11312;51.464;6.968;2024-01-11T12:23:15;-0.60;78.10
22288;DHT22;11312;51.464;6.968;2024-01-11T12:25:41;-0.60;78.00
22288;DHT22;11312;51.464;6.968;2024-01-11T12:28:07;-0.50;71.50
22288;DHT22;11312;51.464;6.968;2024-01-11T12:30:33;-0.50;62.00
22288;DHT22;11312;51.464;6.968;2024-01-11T12:33:00;-0.40;69.00
22288;DHT22;11312;51.464;6.968;2024-01-11T12:35:30;-0.40;68.00
22288;DHT22;11312;51.464;6.968;2024-01-11T12:37:59;-0.30;67.40
22288;DHT22;11312;51.464;6.968;2024-01-11T12:40:25;-0.30;65.50
22288;DHT22;11312;51.464;6.968;2024-01-11T12:42:54;-0.20;67.60
22288;DHT22;11312;51.464;6.968;2024-01-11T12:45:22;-0.20;62.40
22288;DHT22;11312;51.464;6.968;2024-01-11T12:47:48;-0.20;65.00
22288;DHT22;11312;51.464;6.968;2024-01-11T12:50:14;-0.10;66.10
22288;DHT22;11312;51.464;6.968;2024-01-11T12:52:40;0.00;59.10
22288;DHT22;11312;51.464;6.968;2024-01-11T12:55:08;0.00;58.70
22288;DHT22;11312;51.464;6.968;2024-01-11T12:57:34;0.00;57.80
22288;DHT22;11312;51.464;6.968;2024-01-11T13:00:13;0.10;56.10
22288;DHT22;11312;51.464;6.968;2024-01-11T13:02:39;0.20;58.60
22288;DHT22;11312;51.464;6.968;2024-01-11T13:05:06;0.30;55.50
22288;DHT22;11312;51.464;6.968;2024-01-11T13:07:33;0.30;53.70
22288;DHT22;11312;51.464;6.968;2024-01-11T13:09:59;0.40;54.50
22288;DHT22;11312;51.464;6.968;2024-01-11T13:12:25;0.40;54.00
22288;DHT22;11312;51.464;6.968;2024-01-11T13:14:50;0.40;52.30
22288;DHT22;11312;51.464;6.968;2024-01-11T13:17:18;0.40;53.60
22288;DHT22;11312;51.464;6.968;2024-01-11T13:19:44;0.40;47.90
22288;DHT22;11312;51.464;6.968;2024-01-11T13:22:10;0.40;49.40
22288;DHT22;11312;51.464;6.968;2024-01-11T13:24:37;0.50;46.40
22288;DHT22;11312;51.464;6.968;2024-01-11T13:27:03;0.50;46.00
22288;DHT22;11312;51.464;6.968;2024-01-11T13:29:28;0.50;45.20
22288;DHT22;11312;51.464;6.968;2024-01-11T13:31:54;0.80;42.70
22288;DHT22;11312;51.464;6.968;2024-01-11T13:34:19;1.90;27.00
22288;DHT22;11312;51.464;6.968;2024-01-11T13:36:45;4.00;11.20
22288;DHT22;11312;51.464;6.968;2024-01-11T13:39:11;5.00;2.10
22288;DHT22;11312;51.464;6.968;2024-01-11T13:41:36;4.70;1.00
22288;DHT22;11312;51.464;6.968;2024-01-11T13:44:02;5.40;1.00
22288;DHT22;11312;51.464;6.968;2024-01-11T13:46:32;5.80;1.00
22288;DHT22;11312;51.464;6.968;2024-01-11T13:48:58;5.60;1.00
22288;DHT22;11312;51.464;6.968;2024-01-11T13:51:23;5.10;1.00
22288;DHT22;11312;51.464;6.968;2024-01-11T13:53:49;4.70;1.00
22288;DHT22;11312;51.464;6.968;2024-01-11T13:56:15;4.80;1.00
22288;DHT22;11312;51.464;6.968;2024-01-11T13:58:40;5.20;99.90
22288;DHT22;11312;51.464;6.968;2024-01-11T14:01:06;7.20;99.90
22288;DHT22;11312;51.464;6.968;2024-01-11T14:03:33;8.70;47.80
22288;DHT22;11312;51.464;6.968;2024-01-11T14:05:59;6.70;19.30
22288;DHT22;11312;51.464;6.968;2024-01-11T14:08:25;5.90;20.60
22288;DHT22;11312;51.464;6.968;2024-01-11T14:10:51;5.60;15.10
22288;DHT22;11312;51.464;6.968;2024-01-11T14:13:17;5.00;14.10
22288;DHT22;11312;51.464;6.968;2024-01-11T14:15:43;4.20;17.20
22288;DHT22;11312;51.464;6.968;2024-01-11T14:18:09;3.70;16.80
22288;DHT22;11312;51.464;6.968;2024-01-11T14:20:35;3.30;17.30
22288;DHT22;11312;51.464;6.968;2024-01-11T14:23:01;3.40;8.50
22288;DHT22;11312;51.464;6.968;2024-01-11T14:25:26;3.00;8.80
22288;DHT22;11312;51.464;6.968;2024-01-11T14:27:52;3.30;1.00
22288;DHT22;11312;51.464;6.968;2024-01-11T14:30:18;3.30;1.00
22288;DHT22;11312;51.464;6.968;2024-01-11T14:32:44;3.50;1.00
22288;DHT22;11312;51.464;6.968;2024-01-11T14:35:10;3.10;1.00
22288;DHT22;11312;51.464;6.968;2024-01-11T14:37:37;2.70;1.00
22288;DHT22;11312;51.464;6.968;2024-01-11T14:40:07;2.70;1.00
22288;DHT22;11312;51.464;6.968;2024-01-11T14:42:36;2.30;1.00
22288;DHT22;11312;51.464;6.968;2024-01-11T14:45:02;2.40;1.00
22288;DHT22;11312;51.464;6.968;2024-01-11T14:47:29;2.40;1.00
22288;DHT22;11312;51.464;6.968;2024-01-11T14:49:57;2.60;6.80
22288;DHT22;11312;51.464;6.968;2024-01-11T14:52:22;2.70;3.00
22288;DHT22;11312;51.464;6.968;2024-01-11T14:54:48;2.50;4.00
22288;DHT22;11312;51.464;6.968;2024-01-11T14:57:14;2.10;8.90
22288;DHT22;11312;51.464;6.968;2024-01-11T14:59:40;1.80;15.80
22288;DHT22;11312;51.464;6.968;2024-01-11T15:02:06;1.60;18.10
22288;DHT22;11312;51.464;6.968;2024-01-11T15:04:31;1.40;12.70
22288;DHT22;11312;51.464;6.968;2024-01-11T15:06:57;1.30;21.50
22288;DHT22;11312;51.464;6.968;2024-01-11T15:09:22;1.20;29.30
22288;DHT22;11312;51.464;6.968;2024-01-11T15:11:48;1.10;41.80
22288;DHT22;11312;51.464;6.968;2024-01-11T15:14:14;1.00;47.60
22288;DHT22;11312;51.464;6.968;2024-01-11T15:16:39;1.00;53.60
22288;DHT22;11312;51.464;6.968;2024-01-11T15:19:05;1.00;58.50
22288;DHT22;11312;51.464;6.968;2024-01-11T15:21:40;0.90;57.90
22288;DHT22;11312;51.464;6.968;2024-01-11T15:24:06;0.90;64.70
22288;DHT22;11312;51.464;6.968;2024-01-11T15:26:33;0.80;67.70
22288;DHT22;11312;51.464;6.968;2024-01-11T15:28:58;0.80;74.20
22288;DHT22;11312;51.464;6.968;2024-01-11T15:31:24;0.70;80.60
22288;DHT22;11312;51.464;6.968;2024-01-11T15:33:51;0.60;90.30